sensor_id;sensor_type;location;lat;lon;timestamp;pressure;altitude;pressure_sealevel;temperature;humidity
6094;BME280;19964;42.060;24.700;2024-03-25T00:00:24;95867.78;;;11.32;89.54
6094;BME280;19964;42.060;24.700;2024-03-25T00:02:51;95853.56;;;10.81;87.10
6094;BME280;19964;42.060;24.700;2024-03-25T00:05:18;95822.06;;;10.54;86.90
6094;BME280;19964;42.060;24.700;2024-03-25T00:07:48;95834.44;;;10.72;86.34
6094;BME280;19964;42.060;24.700;2024-03-25T00:10:17;95812.44;;;10.69;87.06
6094;BME280;19964;42.060;24.700;2024-03-25T00:12:43;95821.56;;;10.52;87.44
6094;BME280;19964;42.060;24.700;2024-03-25T00:15:10;95823.09;;;10.58;87.38
6094;BME280;19964;42.060;24.700;2024-03-25T00:17:36;95816.88;;;10.64;87.30
6094;BME280;19964;42.060;24.700;2024-03-25T00:20:04;95826.13;;;10.80;86.60
6094;BME280;19964;42.060;24.700;2024-03-25T00:22:31;95828.91;;;10.94;85.92
6094;BME280;19964;42.060;24.700;2024-03-25T00:24:58;95824.41;;;11.09;85.30
6094;BME280;19964;42.060;24.700;2024-03-25T00:27:26;95810.91;;;10.63;86.49
6094;BME280;19964;42.060;24.700;2024-03-25T00:29:54;95813.34;;;10.35;87.90
6094;BME280;19964;42.060;24.700;2024-03-25T00:32:21;95814.38;;;10.34;87.34
6094;BME280;19964;42.060;24.700;2024-03-25T00:34:48;95806.81;;;10.47;87.10
6094;BME280;19964;42.060;24.700;2024-03-25T00:37:14;95817.28;;;10.07;88.27
6094;BME280;19964;42.060;24.700;2024-03-25T00:39:41;95803.84;;;9.95;89.63
6094;BME280;19964;42.060;24.700;2024-03-25T00:42:07;95804.09;;;10.24;89.66
6094;BME280;19964;42.060;24.700;2024-03-25T00:44:35;95795.25;;;10.35;88.86
6094;BME280;19964;42.060;24.700;2024-03-25T00:47:01;95792.88;;;10.38;86.75
6094;BME280;19964;42.060;24.700;2024-03-25T00:49:29;95806.97;;;10.12;87.16
6094;BME280;19964;42.060;24.700;2024-03-25T00:51:55;95803.06;;;10.20;87.75
6094;BME280;19964;42.060;24.700;2024-03-25T00:54:22;95795.00;;;10.31;88.09
6094;BME280;19964;42.060;24.700;2024-03-25T00:56:49;95824.19;;;10.42;91.85
6094;BME280;19964;42.060;24.700;2024-03-25T00:59:16;95843.94;;;10.28;94.93
6094;BME280;19964;42.060;24.700;2024-03-25T01:01:44;95869.28;;;10.31;97.75
6094;BME280;19964;42.060;24.700;2024-03-25T01:04:11;95874.22;;;10.02;96.68
6094;BME280;19964;42.060;24.700;2024-03-25T01:06:37;95918.97;;;10.28;95.52
6094;BME280;19964;42.060;24.700;2024-03-25T01:09:04;95948.47;;;10.27;97.41
6094;BME280;19964;42.060;24.700;2024-03-25T01:11:30;95969.16;;;10.42;97.54
6094;BME280;19964;42.060;24.700;2024-03-25T01:13:57;95984.66;;;10.62;97.40
6094;BME280;19964;42.060;24.700;2024-03-25T01:16:23;95997.59;;;10.67;97.15
6094;BME280;19964;42.060;24.700;2024-03-25T01:18:52;96005.59;;;10.75;97.85
6094;BME280;19964;42.060;24.700;2024-03-25T01:21:18;96006.13;;;10.67;99.11
6094;BME280;19964;42.060;24.700;2024-03-25T01:23:45;96028.69;;;10.42;98.32
6094;BME280;19964;42.060;24.700;2024-03-25T01:26:11;96040.56;;;10.13;98.21
6094;BME280;19964;42.060;24.700;2024-03-25T01:28:38;96042.06;;;9.94;97.64
6094;BME280;19964;42.060;24.700;2024-03-25T01:31:04;96069.94;;;9.71;98.91
6094;BME280;19964;42.060;24.700;2024-03-25T01:33:31;96072.19;;;9.48;98.82
6094;BME280;19964;42.060;24.700;2024-03-25T01:35:59;96070.97;;;9.14;100.00
6094;BME280;19964;42.060;24.700;2024-03-25T01:38:26;96079.25;;;9.16;100.00
6094;BME280;19964;42.060;24.700;2024-03-25T01:40:52;96071.91;;;8.92;100.00
6094;BME280;19964;42.060;24.700;2024-03-25T01:43:19;96088.75;;;8.63;100.00
6094;BME280;19964;42.060;24.700;2024-03-25T01:45:46;96090.72;;;8.56;100.00
6094;BME280;19964;42.060;24.700;2024-03-25T01:48:14;95952.72;;;7.37;100.00
6094;BME280;19964;42.060;24.700;2024-03-25T01:50:43;96091.47;;;7.98;100.00
6094;BME280;19964;42.060;24.700;2024-03-25T01:53:14;96092.28;;;7.77;100.00
6094;BME280;19964;42.060;24.700;2024-03-25T01:55:41;96092.09;;;7.84;100.00
6094;BME280;19964;42.060;24.700;2024-03-25T01:58:09;96088.88;;;7.72;100.00
6094;BME280;19964;42.060;24.700;2024-03-25T02:00:35;96071.44;;;7.57;100.00
6094;BME280;19964;42.060;24.700;2024-03-25T02:03:03;96107.50;;;7.57;100.00
6094;BME280;19964;42.060;24.700;2024-03-25T02:05:29;96094.06;;;7.34;100.00
6094;BME280;19964;42.060;24.700;2024-03-25T02:07:57;96095.56;;;7.30;100.00
6094;BME280;19964;42.060;24.700;2024-03-25T02:10:26;96089.88;;;7.28;100.00
6094;BME280;19964;42.060;24.700;2024-03-25T02:12:54;96076.56;;;7.14;100.00
6094;BME280;19964;42.060;24.700;2024-03-25T02:15:21;96072.03;;;7.21;100.00
6094;BME280;19964;42.060;24.700;2024-03-25T02:17:48;96052.84;;;7.12;100.00
6094;BME280;19964;42.060;24.700;2024-03-25T02:20:15;96009.50;;;6.82;100.00
6094;BME280;19964;42.060;24.700;2024-03-25T02:22:41;96059.25;;;7.09;100.00
6094;BME280;19964;42.060;24.700;2024-03-25T02:25:09;96050.59;;;7.15;100.00
6094;BME280;19964;42.060;24.700;2024-03-25T02:27:37;96041.91;;;7.22;100.00
6094;BME280;19964;42.060;24.700;2024-03-25T02:30:05;96033.13;;;7.01;100.00
6094;BME280;19964;42.060;24.700;2024-03-25T02:32:32;96012.78;;;6.99;100.00
6094;BME280;19964;42.060;24.700;2024-03-25T02:35:01;96038.47;;;7.16;100.00
6094;BME280;19964;42.060;24.700;2024-03-25T02:37:28;96041.06;;;7.16;100.00
6094;BME280;19964;42.060;24.700;2024-03-25T02:39:57;96043.59;;;7.33;100.00
6094;BME280;19964;42.060;24.700;2024-03-25T02:42:24;96055.84;;;7.26;100.00
6094;BME280;19964;42.060;24.700;2024-03-25T02:44:54;96058.78;;;7.34;100.00
6094;BME280;19964;42.060;24.700;2024-03-25T02:47:20;96051.91;;;7.40;100.00
6094;BME280;19964;42.060;24.700;2024-03-25T02:49:47;96045.09;;;7.29;100.00
6094;BME280;19964;42.060;24.700;2024-03-25T02:52:13;96049.44;;;7.28;100.00
6094;BME280;19964;42.060;24.700;2024-03-25T02:54:40;96072.75;;;7.38;100.00
6094;BME280;19964;42.060;24.700;2024-03-25T02:57:06;96058.66;;;7.46;100.00
6094;BME280;19964;42.060;24.700;2024-03-25T02:59:33;96064.06;;;7.44;100.00
6094;BME280;19964;42.060;24.700;2024-03-25T03:02:01;96066.41;;;7.46;100.00
6094;BME280;19964;42.060;24.700;2024-03-25T03:04:28;96064.63;;;7.46;100.00
6094;BME280;19964;42.060;24.700;2024-03-25T03:06:54;96052.41;;;7.37;100.00
6094;BME280;19964;42.060;24.700;2024-03-25T03:09:21;96044.19;;;7.40;100.00
6094;BME280;19964;42.060;24.700;2024-03-25T03:11:47;96027.97;;;7.39;100.00
6094;BME280;19964;42.060;24.700;2024-03-25T03:14:14;96025.91;;;7.41;100.00
6094;BME280;19964;42.060;24.700;2024-03-25T03:16:40;96020.22;;;7.39;100.00
6094;BME280;19964;42.060;24.700;2024-03-25T03:19:09;96024.22;;;7.52;100.00
6094;BME280;19964;42.060;24.700;2024-03-25T03:21:35;96013.63;;;7.48;100.00
6094;BME280;19964;42.060;24.700;2024-03-25T03:24:02;96012.06;;;7.47;100.00
6094;BME280;19964;42.060;24.700;2024-03-25T03:26:29;96019.56;;;7.49;100.00
6094;BME280;19964;42.060;24.700;2024-03-25T03:28:56;96019.59;;;7.54;100.00
6094;BME280;19964;42.060;24.700;2024-03-25T03:31:22;96017.28;;;7.52;100.00
6094;BME280;19964;42.060;24.700;2024-03-25T03:33:49;96013.25;;;7.61;100.00
6094;BME280;19964;42.060;24.700;2024-03-25T03:36:18;95998.31;;;7.63;100.00
6094;BME280;19964;42.060;24.700;2024-03-25T03:38:46;96001.16;;;7.62;100.00
6094;BME280;19964;42.060;24.700;2024-03-25T03:41:12;95999.56;;;7.61;100.00
6094;BME280;19964;42.060;24.700;2024-03-25T03:43:39;96026.06;;;7.78;100.00
6094;BME280;19964;42.060;24.700;2024-03-25T03:46:05;96025.81;;;7.79;100.00
6094;BME280;19964;42.060;24.700;2024-03-25T03:50:58;96041.41;;;7.94;100.00
6094;BME280;19964;42.060;24.700;2024-03-25T03:53:27;96048.56;;;7.87;100.00
6094;BME280;19964;42.060;24.700;2024-03-25T03:55:53;96069.88;;;7.78;100.00
6094;BME280;19964;42.060;24.700;2024-03-25T03:58:21;96074.34;;;7.87;100.00
6094;BME280;19964;42.060;24.700;2024-03-25T04:00:47;96087.25;;;7.87;100.00
6094;BME280;19964;42.060;24.700;2024-03-25T04:03:14;96093.41;;;7.86;100.00
6094;BME280;19964;42.060;24.700;2024-03-25T04:05:40;96102.19;;;7.64;100.00
6094;BME280;19964;42.060;24.700;2024-03-25T04:08:07;96115.84;;;7.43;100.00
6094;BME280;19964;42.060;24.700;2024-03-25T04:10:35;96123.44;;;7.54;100.00
6094;BME280;19964;42.060;24.700;2024-03-25T04:13:03;96141.06;;;7.41;100.00
6094;BME280;19964;42.060;24.700;2024-03-25T04:15:29;96153.66;;;7.20;100.00
6094;BME280;19964;42.060;24.700;2024-03-25T04:17:59;96154.63;;;6.98;100.00
6094;BME280;19964;42.060;24.700;2024-03-25T04:20:26;96124.56;;;6.87;100.00
6094;BME280;19964;42.060;24.700;2024-03-25T04:22:53;96166.69;;;8.39;100.00
6094;BME280;19964;42.060;24.700;2024-03-25T04:25:19;96175.72;;;7.71;100.00
6094;BME280;19964;42.060;24.700;2024-03-25T04:27:48;96192.19;;;7.32;100.00
6094;BME280;19964;42.060;24.700;2024-03-25T04:30:14;96189.88;;;6.97;100.00
6094;BME280;19964;42.060;24.700;2024-03-25T04:32:42;96188.13;;;6.70;100.00
6094;BME280;19964;42.060;24.700;2024-03-25T04:35:08;96186.94;;;6.61;100.00
6094;BME280;19964;42.060;24.700;2024-03-25T04:37:35;96193.47;;;6.52;100.00
6094;BME280;19964;42.060;24.700;2024-03-25T04:40:01;96196.56;;;6.37;100.00
6094;BME280;19964;42.060;24.700;2024-03-25T04:42:27;96182.06;;;6.48;100.00
6094;BME280;19964;42.060;24.700;2024-03-25T04:44:55;96179.41;;;6.26;100.00
6094;BME280;19964;42.060;24.700;2024-03-25T04:47:21;96202.19;;;6.22;100.00
6094;BME280;19964;42.060;24.700;2024-03-25T04:49:47;96201.09;;;6.18;100.00
6094;BME280;19964;42.060;24.700;2024-03-25T04:52:14;96172.06;;;6.18;100.00
6094;BME280;19964;42.060;24.700;2024-03-25T04:54:41;96169.47;;;6.18;100.00
6094;BME280;19964;42.060;24.700;2024-03-25T04:57:07;96164.69;;;6.10;100.00
6094;BME280;19964;42.060;24.700;2024-03-25T04:59:33;96213.34;;;6.28;100.00
6094;BME280;19964;42.060;24.700;2024-03-25T05:02:00;96204.03;;;6.39;100.00
6094;BME280;19964;42.060;24.700;2024-03-25T05:04:26;96193.19;;;6.37;100.00
6094;BME280;19964;42.060;24.700;2024-03-25T05:06:52;96192.53;;;6.41;100.00
6094;BME280;19964;42.060;24.700;2024-03-25T05:09:18;96189.28;;;6.34;100.00
6094;BME280;19964;42.060;24.700;2024-03-25T05:11:44;96187.81;;;6.38;100.00
6094;BME280;19964;42.060;24.700;2024-03-25T05:14:10;96188.94;;;6.42;100.00
6094;BME280;19964;42.060;24.700;2024-03-25T05:16:36;96195.28;;;6.51;100.00
6094;BME280;19964;42.060;24.700;2024-03-25T05:19:03;96201.13;;;6.63;100.00
6094;BME280;19964;42.060;24.700;2024-03-25T05:21:30;96198.41;;;6.70;100.00
6094;BME280;19964;42.060;24.700;2024-03-25T05:23:55;96202.63;;;6.76;100.00
6094;BME280;19964;42.060;24.700;2024-03-25T05:26:22;96177.94;;;6.75;100.00
6094;BME280;19964;42.060;24.700;2024-03-25T05:28:52;96218.09;;;6.92;100.00
6094;BME280;19964;42.060;24.700;2024-03-25T05:31:18;96226.06;;;7.07;100.00
6094;BME280;19964;42.060;24.700;2024-03-25T05:33:44;96225.91;;;6.97;100.00
6094;BME280;19964;42.060;24.700;2024-03-25T05:36:11;96232.75;;;7.08;100.00
6094;BME280;19964;42.060;24.700;2024-03-25T05:38:37;96234.97;;;7.16;100.00
6094;BME280;19964;42.060;24.700;2024-03-25T05:41:04;96245.28;;;7.33;100.00
6094;BME280;19964;42.060;24.700;2024-03-25T05:43:30;96224.28;;;7.25;100.00
6094;BME280;19964;42.060;24.700;2024-03-25T05:45:56;96258.63;;;7.47;100.00
6094;BME280;19964;42.060;24.700;2024-03-25T05:48:24;96253.38;;;7.58;100.00
6094;BME280;19964;42.060;24.700;2024-03-25T05:50:58;96255.31;;;7.68;100.00
6094;BME280;19964;42.060;24.700;2024-03-25T05:53:25;96263.41;;;7.76;100.00
6094;BME280;19964;42.060;24.700;2024-03-25T05:55:51;96266.84;;;7.65;100.00
6094;BME280;19964;42.060;24.700;2024-03-25T05:58:18;96264.72;;;7.79;100.00
6094;BME280;19964;42.060;24.700;2024-03-25T06:00:46;96265.31;;;8.02;100.00
6094;BME280;19964;42.060;24.700;2024-03-25T06:03:12;96266.75;;;7.93;100.00
6094;BME280;19964;42.060;24.700;2024-03-25T06:05:38;96277.78;;;8.10;100.00
6094;BME280;19964;42.060;24.700;2024-03-25T06:08:05;96287.31;;;8.10;100.00
6094;BME280;19964;42.060;24.700;2024-03-25T06:10:36;96298.81;;;8.19;98.23
6094;BME280;19964;42.060;24.700;2024-03-25T06:13:03;96282.25;;;8.15;98.64
6094;BME280;19964;42.060;24.700;2024-03-25T06:15:29;96309.53;;;8.11;97.08
6094;BME280;19964;42.060;24.700;2024-03-25T06:17:55;96315.69;;;8.10;94.10
6094;BME280;19964;42.060;24.700;2024-03-25T06:20:21;96325.41;;;8.03;92.47
6094;BME280;19964;42.060;24.700;2024-03-25T06:22:47;96315.72;;;7.93;93.44
6094;BME280;19964;42.060;24.700;2024-03-25T06:25:13;96326.34;;;7.97;94.54
6094;BME280;19964;42.060;24.700;2024-03-25T06:27:40;96330.34;;;7.88;95.01
6094;BME280;19964;42.060;24.700;2024-03-25T06:30:08;96330.81;;;8.01;93.62
6094;BME280;19964;42.060;24.700;2024-03-25T06:32:48;96336.56;;;8.08;92.87
6094;BME280;19964;42.060;24.700;2024-03-25T06:35:33;96335.72;;;8.03;93.51
6094;BME280;19964;42.060;24.700;2024-03-25T06:37:59;96350.25;;;8.26;92.82
6094;BME280;19964;42.060;24.700;2024-03-25T06:40:25;96357.19;;;8.25;92.05
6094;BME280;19964;42.060;24.700;2024-03-25T06:42:52;96368.75;;;8.23;90.32
6094;BME280;19964;42.060;24.700;2024-03-25T06:45:18;96371.94;;;8.46;89.69
6094;BME280;19964;42.060;24.700;2024-03-25T06:47:44;96376.50;;;8.61;90.12
6094;BME280;19964;42.060;24.700;2024-03-25T06:50:10;96379.88;;;8.61;88.09
6094;BME280;19964;42.060;24.700;2024-03-25T06:52:36;96388.88;;;8.80;87.62
6094;BME280;19964;42.060;24.700;2024-03-25T06:55:02;96385.94;;;8.50;87.18
6094;BME280;19964;42.060;24.700;2024-03-25T06:57:28;96385.41;;;8.32;87.74
6094;BME280;19964;42.060;24.700;2024-03-25T06:59:56;96377.06;;;8.25;88.04
6094;BME280;19964;42.060;24.700;2024-03-25T07:02:22;96394.38;;;8.46;89.20
6094;BME280;19964;42.060;24.700;2024-03-25T07:04:48;96400.53;;;8.45;86.55
6094;BME280;19964;42.060;24.700;2024-03-25T07:07:14;96398.59;;;8.52;84.36
6094;BME280;19964;42.060;24.700;2024-03-25T07:09:40;96387.63;;;8.61;83.36
6094;BME280;19964;42.060;24.700;2024-03-25T07:12:07;96393.91;;;8.70;83.24
6094;BME280;19964;42.060;24.700;2024-03-25T07:14:33;96389.78;;;8.69;82.81
6094;BME280;19964;42.060;24.700;2024-03-25T07:17:00;96398.75;;;8.83;81.50
6094;BME280;19964;42.060;24.700;2024-03-25T07:19:26;96391.94;;;8.77;81.95
6094;BME280;19964;42.060;24.700;2024-03-25T07:21:52;96396.19;;;8.88;81.85
6094;BME280;19964;42.060;24.700;2024-03-25T07:24:18;96389.38;;;8.77;80.06
6094;BME280;19964;42.060;24.700;2024-03-25T07:26:44;96414.75;;;8.64;80.75
6094;BME280;19964;42.060;24.700;2024-03-25T07:29:10;96387.78;;;8.55;80.32
6094;BME280;19964;42.060;24.700;2024-03-25T07:31:36;96418.78;;;8.98;80.57
6094;BME280;19964;42.060;24.700;2024-03-25T07:34:04;96423.34;;;8.91;78.70
6094;BME280;19964;42.060;24.700;2024-03-25T07:36:30;96427.72;;;8.90;77.02
6094;BME280;19964;42.060;24.700;2024-03-25T07:38:56;96420.56;;;8.97;77.90
6094;BME280;19964;42.060;24.700;2024-03-25T07:41:22;96430.78;;;9.09;77.52
6094;BME280;19964;42.060;24.700;2024-03-25T07:43:48;96415.09;;;9.37;76.76
6094;BME280;19964;42.060;24.700;2024-03-25T07:46:14;96442.28;;;9.71;73.46
6094;BME280;19964;42.060;24.700;2024-03-25T07:48:40;96442.44;;;9.86;71.77
6094;BME280;19964;42.060;24.700;2024-03-25T07:51:07;96432.19;;;9.97;69.24
6094;BME280;19964;42.060;24.700;2024-03-25T07:53:33;96440.16;;;10.22;68.59
6094;BME280;19964;42.060;24.700;2024-03-25T07:55:59;96399.53;;;10.22;69.83
6094;BME280;19964;42.060;24.700;2024-03-25T07:58:25;96452.56;;;11.08;67.64
6094;BME280;19964;42.060;24.700;2024-03-25T08:00:51;96445.63;;;11.24;67.54
6094;BME280;19964;42.060;24.700;2024-03-25T08:03:17;96452.75;;;10.92;67.81
6094;BME280;19964;42.060;24.700;2024-03-25T08:05:43;96444.94;;;10.87;66.72
6094;BME280;19964;42.060;24.700;2024-03-25T08:08:10;96454.34;;;10.98;67.52
6094;BME280;19964;42.060;24.700;2024-03-25T08:10:37;96461.53;;;10.44;66.87
6094;BME280;19964;42.060;24.700;2024-03-25T08:13:03;96454.28;;;10.46;64.99
6094;BME280;19964;42.060;24.700;2024-03-25T08:15:29;96467.75;;;10.43;65.82
6094;BME280;19964;42.060;24.700;2024-03-25T08:17:55;96450.34;;;10.33;64.69
6094;BME280;19964;42.060;24.700;2024-03-25T08:20:21;96460.47;;;10.08;63.85
6094;BME280;19964;42.060;24.700;2024-03-25T08:29:32;96463.28;;;10.33;62.68
6094;BME280;19964;42.060;24.700;2024-03-25T08:31:58;96456.28;;;10.34;62.73
6094;BME280;19964;42.060;24.700;2024-03-25T08:34:24;96459.56;;;10.24;62.86
6094;BME280;19964;42.060;24.700;2024-03-25T08:36:50;96470.25;;;11.26;61.37
6094;BME280;19964;42.060;24.700;2024-03-25T08:39:16;96459.53;;;11.70;61.57
6094;BME280;19964;42.060;24.700;2024-03-25T08:41:42;96479.31;;;12.46;59.70
6094;BME280;19964;42.060;24.700;2024-03-25T08:44:08;96501.13;;;12.50;58.04
6094;BME280;19964;42.060;24.700;2024-03-25T08:46:36;96500.34;;;12.14;57.29
6094;BME280;19964;42.060;24.700;2024-03-25T08:49:02;96509.16;;;12.03;59.08
6094;BME280;19964;42.060;24.700;2024-03-25T08:51:28;96521.63;;;12.16;56.23
6094;BME280;19964;42.060;24.700;2024-03-25T08:53:54;96501.31;;;11.88;57.32
6094;BME280;19964;42.060;24.700;2024-03-25T08:56:19;96494.34;;;12.04;56.66
6094;BME280;19964;42.060;24.700;2024-03-25T08:58:45;96486.47;;;13.09;56.01
6094;BME280;19964;42.060;24.700;2024-03-25T09:01:11;96476.22;;;13.38;53.57
6094;BME280;19964;42.060;24.700;2024-03-25T09:03:39;96483.28;;;13.81;52.27
6094;BME280;19964;42.060;24.700;2024-03-25T09:06:06;96472.16;;;13.71;50.89
6094;BME280;19964;42.060;24.700;2024-03-25T09:08:32;96476.84;;;14.46;52.40
6094;BME280;19964;42.060;24.700;2024-03-25T09:10:59;96458.28;;;14.19;51.90
6094;BME280;19964;42.060;24.700;2024-03-25T09:13:31;96474.50;;;14.11;50.25
6094;BME280;19964;42.060;24.700;2024-03-25T09:15:57;96460.94;;;14.48;50.22
6094;BME280;19964;42.060;24.700;2024-03-25T09:18:23;96463.69;;;14.85;51.82
6094;BME280;19964;42.060;24.700;2024-03-25T09:20:51;96474.16;;;14.27;47.71
6094;BME280;19964;42.060;24.700;2024-03-25T09:23:17;96471.69;;;14.02;48.71
6094;BME280;19964;42.060;24.700;2024-03-25T09:25:51;96473.88;;;14.58;50.19
6094;BME280;19964;42.060;24.700;2024-03-25T09:28:17;96476.53;;;14.53;48.69
6094;BME280;19964;42.060;24.700;2024-03-25T09:30:44;96464.38;;;14.04;48.67
6094;BME280;19964;42.060;24.700;2024-03-25T09:33:10;96484.09;;;14.49;48.12
6094;BME280;19964;42.060;24.700;2024-03-25T09:35:36;96422.81;;;14.28;49.24
6094;BME280;19964;42.060;24.700;2024-03-25T09:38:04;96488.41;;;14.35;46.70
6094;BME280;19964;42.060;24.700;2024-03-25T09:40:30;96489.38;;;14.44;46.97
6094;BME280;19964;42.060;24.700;2024-03-25T09:42:56;96474.94;;;14.18;47.31
6094;BME280;19964;42.060;24.700;2024-03-25T09:45:24;96501.28;;;14.16;46.46
6094;BME280;19964;42.060;24.700;2024-03-25T09:47:51;96473.53;;;14.02;47.90
6094;BME280;19964;42.060;24.700;2024-03-25T09:50:17;96482.03;;;14.12;45.89
6094;BME280;19964;42.060;24.700;2024-03-25T09:52:45;96489.44;;;13.95;46.20
6094;BME280;19964;42.060;24.700;2024-03-25T09:55:12;96488.75;;;14.18;45.75
6094;BME280;19964;42.060;24.700;2024-03-25T09:57:38;96510.78;;;14.70;46.32
6094;BME280;19964;42.060;24.700;2024-03-25T10:00:05;96501.41;;;14.69;45.35
6094;BME280;19964;42.060;24.700;2024-03-25T10:02:33;96510.34;;;14.63;46.04
6094;BME280;19964;42.060;24.700;2024-03-25T10:05:00;96502.53;;;15.15;45.42
6094;BME280;19964;42.060;24.700;2024-03-25T10:07:26;96502.56;;;15.10;45.32
6094;BME280;19964;42.060;24.700;2024-03-25T10:09:52;96519.28;;;15.33;44.09
6094;BME280;19964;42.060;24.700;2024-03-25T10:12:19;96510.84;;;14.88;42.74
6094;BME280;19964;42.060;24.700;2024-03-25T10:14:45;96513.34;;;14.07;44.63
6094;BME280;19964;42.060;24.700;2024-03-25T10:17:11;96506.31;;;14.08;46.29
6094;BME280;19964;42.060;24.700;2024-03-25T10:19:37;96504.00;;;14.40;45.08
6094;BME280;19964;42.060;24.700;2024-03-25T10:22:04;96455.69;;;14.19;45.92
6094;BME280;19964;42.060;24.700;2024-03-25T10:24:38;96505.50;;;14.80;46.35
6094;BME280;19964;42.060;24.700;2024-03-25T10:27:04;96507.72;;;15.15;44.71
6094;BME280;19964;42.060;24.700;2024-03-25T10:29:32;96502.03;;;15.13;43.42
6094;BME280;19964;42.060;24.700;2024-03-25T10:32:01;96513.03;;;14.53;44.17
6094;BME280;19964;42.060;24.700;2024-03-25T10:34:27;96493.06;;;14.67;44.40
6094;BME280;19964;42.060;24.700;2024-03-25T10:36:56;96504.31;;;14.91;45.74
6094;BME280;19964;42.060;24.700;2024-03-25T10:39:25;96514.72;;;14.96;44.83
6094;BME280;19964;42.060;24.700;2024-03-25T10:41:55;96513.88;;;15.00;43.67
6094;BME280;19964;42.060;24.700;2024-03-25T10:44:22;96516.09;;;15.36;44.74
6094;BME280;19964;42.060;24.700;2024-03-25T10:47:00;96527.16;;;15.93;41.91
6094;BME280;19964;42.060;24.700;2024-03-25T10:49:33;96518.53;;;16.12;40.90
6094;BME280;19964;42.060;24.700;2024-03-25T10:52:00;96510.63;;;15.79;40.79
6094;BME280;19964;42.060;24.700;2024-03-25T10:54:30;96487.56;;;16.05;41.08
6094;BME280;19964;42.060;24.700;2024-03-25T10:56:58;96518.13;;;16.04;41.92
6094;BME280;19964;42.060;24.700;2024-03-25T10:59:25;96511.28;;;15.24;40.94
6094;BME280;19964;42.060;24.700;2024-03-25T11:01:53;96511.97;;;14.54;42.74
6094;BME280;19964;42.060;24.700;2024-03-25T11:04:20;96509.53;;;13.90;44.40
6094;BME280;19964;42.060;24.700;2024-03-25T11:06:46;96519.56;;;13.58;44.61
6094;BME280;19964;42.060;24.700;2024-03-25T11:09:22;96505.72;;;13.18;46.99
6094;BME280;19964;42.060;24.700;2024-03-25T11:11:50;96513.56;;;12.78;47.08
6094;BME280;19964;42.060;24.700;2024-03-25T11:14:16;96524.19;;;12.97;47.77
6094;BME280;19964;42.060;24.700;2024-03-25T11:16:42;96525.44;;;13.24;47.38
6094;BME280;19964;42.060;24.700;2024-03-25T11:19:11;96532.78;;;13.12;45.21
6094;BME280;19964;42.060;24.700;2024-03-25T11:21:37;96534.59;;;12.72;47.11
6094;BME280;19964;42.060;24.700;2024-03-25T11:24:06;96533.06;;;12.30;48.70
6094;BME280;19964;42.060;24.700;2024-03-25T11:26:32;96530.47;;;12.35;48.81
6094;BME280;19964;42.060;24.700;2024-03-25T11:28:58;96522.41;;;12.27;48.44
6094;BME280;19964;42.060;24.700;2024-03-25T11:31:25;96501.13;;;12.15;47.10
6094;BME280;19964;42.060;24.700;2024-03-25T11:33:51;96433.06;;;11.83;47.04
6094;BME280;19964;42.060;24.700;2024-03-25T11:36:20;96512.53;;;12.39;47.40
6094;BME280;19964;42.060;24.700;2024-03-25T11:38:46;96535.16;;;12.43;46.63
6094;BME280;19964;42.060;24.700;2024-03-25T11:41:22;96531.78;;;12.48;46.91
6094;BME280;19964;42.060;24.700;2024-03-25T11:43:48;96536.97;;;12.23;47.63
6094;BME280;19964;42.060;24.700;2024-03-25T11:46:17;96536.91;;;12.08;47.18
6094;BME280;19964;42.060;24.700;2024-03-25T11:48:44;96533.53;;;12.02;48.73
6094;BME280;19964;42.060;24.700;2024-03-25T11:51:12;96537.66;;;11.83;48.31
6094;BME280;19964;42.060;24.700;2024-03-25T11:53:39;96536.38;;;11.96;48.04
6094;BME280;19964;42.060;24.700;2024-03-25T11:56:06;96538.47;;;11.99;48.24
6094;BME280;19964;42.060;24.700;2024-03-25T11:58:32;96536.38;;;11.96;47.54
6094;BME280;19964;42.060;24.700;2024-03-25T12:00:58;96533.03;;;11.95;47.69
6094;BME280;19964;42.060;24.700;2024-03-25T12:03:24;96532.53;;;12.03;48.77
6094;BME280;19964;42.060;24.700;2024-03-25T12:05:50;96537.44;;;11.90;47.46
6094;BME280;19964;42.060;24.700;2024-03-25T12:08:16;96529.38;;;11.96;48.53
6094;BME280;19964;42.060;24.700;2024-03-25T12:10:43;96535.56;;;11.80;47.97
6094;BME280;19964;42.060;24.700;2024-03-25T12:13:27;96531.94;;;11.86;49.35
6094;BME280;19964;42.060;24.700;2024-03-25T12:15:54;96539.00;;;12.01;50.25
6094;BME280;19964;42.060;24.700;2024-03-25T12:18:20;96520.00;;;11.70;49.73
6094;BME280;19964;42.060;24.700;2024-03-25T12:20:47;96541.53;;;11.81;50.09
6094;BME280;19964;42.060;24.700;2024-03-25T12:23:13;96556.03;;;11.72;50.18
6094;BME280;19964;42.060;24.700;2024-03-25T12:25:39;96551.75;;;11.45;54.55
6094;BME280;19964;42.060;24.700;2024-03-25T12:28:09;96553.50;;;11.30;57.31
6094;BME280;19964;42.060;24.700;2024-03-25T12:30:49;96563.09;;;10.88;56.92
6094;BME280;19964;42.060;24.700;2024-03-25T12:33:15;96560.31;;;10.94;57.27
6094;BME280;19964;42.060;24.700;2024-03-25T12:35:41;96556.41;;;10.92;56.27
6094;BME280;19964;42.060;24.700;2024-03-25T12:38:07;96569.75;;;11.15;56.24
6094;BME280;19964;42.060;24.700;2024-03-25T12:40:33;96552.22;;;10.91;56.16
6094;BME280;19964;42.060;24.700;2024-03-25T12:42:59;96567.09;;;11.05;54.78
6094;BME280;19964;42.060;24.700;2024-03-25T12:45:27;96572.25;;;11.00;53.56
6094;BME280;19964;42.060;24.700;2024-03-25T12:47:53;96567.91;;;11.06;53.59
6094;BME280;19964;42.060;24.700;2024-03-25T12:50:19;96567.13;;;11.62;53.00
6094;BME280;19964;42.060;24.700;2024-03-25T12:52:45;96560.22;;;11.78;49.93
6094;BME280;19964;42.060;24.700;2024-03-25T12:55:11;96573.72;;;11.80;50.41
6094;BME280;19964;42.060;24.700;2024-03-25T12:57:37;96575.16;;;11.60;49.40
6094;BME280;19964;42.060;24.700;2024-03-25T13:00:03;96590.97;;;11.54;49.56
6094;BME280;19964;42.060;24.700;2024-03-25T13:02:32;96595.91;;;11.55;49.79
6094;BME280;19964;42.060;24.700;2024-03-25T13:04:58;96584.41;;;11.36;50.15
6094;BME280;19964;42.060;24.700;2024-03-25T13:07:24;96591.38;;;11.31;49.90
6094;BME280;19964;42.060;24.700;2024-03-25T13:09:50;96597.28;;;11.26;49.89